sensor_id;sensor_type;location;lat;lon;timestamp;temperature;humidity
66752;SHT31;53663;42.676;23.238;2023-05-07T00:00:20;10.01;77.67
66752;SHT31;53663;42.676;23.238;2023-05-07T00:02:46;9.80;78.57
66752;SHT31;53663;42.676;23.238;2023-05-07T00:05:11;9.76;78.83
66752;SHT31;53663;42.676;23.238;2023-05-07T00:07:37;9.93;78.59
66752;SHT31;53663;42.676;23.238;2023-05-07T00:10:03;9.99;78.17
66752;SHT31;53663;42.676;23.238;2023-05-07T00:12:29;10.06;77.98
66752;SHT31;53663;42.676;23.238;2023-05-07T00:15:00;10.07;77.79
66752;SHT31;53663;42.676;23.238;2023-05-07T00:17:26;10.04;77.93
66752;SHT31;53663;42.676;23.238;2023-05-07T00:19:51;10.03;77.83
66752;SHT31;53663;42.676;23.238;2023-05-07T00:22:17;10.04;77.69
66752;SHT31;53663;42.676;23.238;2023-05-07T00:24:42;9.99;78.17
66752;SHT31;53663;42.676;23.238;2023-05-07T00:27:08;9.93;78.11
66752;SHT31;53663;42.676;23.238;2023-05-07T00:29:33;9.89;78.28
66752;SHT31;53663;42.676;23.238;2023-05-07T00:31:59;9.89;78.36
66752;SHT31;53663;42.676;23.238;2023-05-07T00:34:25;9.82;78.63
66752;SHT31;53663;42.676;23.238;2023-05-07T00:36:50;9.82;78.69
66752;SHT31;53663;42.676;23.238;2023-05-07T00:39:16;9.82;79.10
66752;SHT31;53663;42.676;23.238;2023-05-07T00:41:41;9.83;78.99
66752;SHT31;53663;42.676;23.238;2023-05-07T00:44:07;9.80;79.33
66752;SHT31;53663;42.676;23.238;2023-05-07T00:46:33;9.78;79.21
66752;SHT31;53663;42.676;23.238;2023-05-07T00:48:59;9.73;79.34
66752;SHT31;53663;42.676;23.238;2023-05-07T00:51:25;9.70;79.31
66752;SHT31;53663;42.676;23.238;2023-05-07T00:53:53;9.59;79.77
66752;SHT31;53663;42.676;23.238;2023-05-07T00:56:21;9.53;79.85
66752;SHT31;53663;42.676;23.238;2023-05-07T00:58:47;9.45;80.21
66752;SHT31;53663;42.676;23.238;2023-05-07T01:01:12;9.35;80.53
66752;SHT31;53663;42.676;23.238;2023-05-07T01:03:38;9.36;80.24
66752;SHT31;53663;42.676;23.238;2023-05-07T01:06:04;9.34;80.47
66752;SHT31;53663;42.676;23.238;2023-05-07T01:08:32;9.34;79.96
66752;SHT31;53663;42.676;23.238;2023-05-07T01:10:58;9.30;80.20
66752;SHT31;53663;42.676;23.238;2023-05-07T01:13:24;9.31;79.82
66752;SHT31;53663;42.676;23.238;2023-05-07T01:15:50;9.22;80.30
66752;SHT31;53663;42.676;23.238;2023-05-07T01:18:16;9.21;80.20
66752;SHT31;53663;42.676;23.238;2023-05-07T01:20:42;9.14;80.71
66752;SHT31;53663;42.676;23.238;2023-05-07T01:23:08;9.12;80.83
66752;SHT31;53663;42.676;23.238;2023-05-07T01:25:35;9.08;81.02
66752;SHT31;53663;42.676;23.238;2023-05-07T01:28:01;9.11;80.67
66752;SHT31;53663;42.676;23.238;2023-05-07T01:30:30;9.08;80.67
66752;SHT31;53663;42.676;23.238;2023-05-07T01:33:04;9.01;80.85
66752;SHT31;53663;42.676;23.238;2023-05-07T01:35:38;8.99;81.15
66752;SHT31;53663;42.676;23.238;2023-05-07T01:38:05;8.91;81.38
66752;SHT31;53663;42.676;23.238;2023-05-07T01:40:31;8.90;81.15
66752;SHT31;53663;42.676;23.238;2023-05-07T01:42:57;8.87;81.62
66752;SHT31;53663;42.676;23.238;2023-05-07T01:45:23;8.85;81.77
66752;SHT31;53663;42.676;23.238;2023-05-07T01:47:49;8.85;81.72
66752;SHT31;53663;42.676;23.238;2023-05-07T01:50:17;8.80;81.87
66752;SHT31;53663;42.676;23.238;2023-05-07T01:52:44;8.79;82.02
66752;SHT31;53663;42.676;23.238;2023-05-07T01:55:09;8.70;82.02
66752;SHT31;53663;42.676;23.238;2023-05-07T01:57:35;8.77;82.26
66752;SHT31;53663;42.676;23.238;2023-05-07T02:00:01;8.79;82.40
66752;SHT31;53663;42.676;23.238;2023-05-07T02:02:28;8.72;82.52
66752;SHT31;53663;42.676;23.238;2023-05-07T02:04:56;8.66;82.65
66752;SHT31;53663;42.676;23.238;2023-05-07T02:07:22;8.63;82.89
66752;SHT31;53663;42.676;23.238;2023-05-07T02:09:47;8.62;83.33
66752;SHT31;53663;42.676;23.238;2023-05-07T02:12:13;8.57;83.54
66752;SHT31;53663;42.676;23.238;2023-05-07T02:14:39;8.67;83.71
66752;SHT31;53663;42.676;23.238;2023-05-07T02:17:05;8.63;83.75
66752;SHT31;53663;42.676;23.238;2023-05-07T02:19:31;8.53;83.41
66752;SHT31;53663;42.676;23.238;2023-05-07T02:21:56;8.49;83.34
66752;SHT31;53663;42.676;23.238;2023-05-07T02:24:22;8.54;83.25
66752;SHT31;53663;42.676;23.238;2023-05-07T02:26:47;8.56;82.66
66752;SHT31;53663;42.676;23.238;2023-05-07T02:29:13;8.56;82.58
66752;SHT31;53663;42.676;23.238;2023-05-07T02:31:39;8.56;82.68
66752;SHT31;53663;42.676;23.238;2023-05-07T02:34:05;8.54;83.01
66752;SHT31;53663;42.676;23.238;2023-05-07T02:36:31;8.54;83.46
66752;SHT31;53663;42.676;23.238;2023-05-07T02:39:05;8.45;84.08
66752;SHT31;53663;42.676;23.238;2023-05-07T02:41:30;8.49;84.32
66752;SHT31;53663;42.676;23.238;2023-05-07T02:43:56;8.49;84.35
66752;SHT31;53663;42.676;23.238;2023-05-07T02:46:22;8.52;84.27
66752;SHT31;53663;42.676;23.238;2023-05-07T02:48:55;8.45;84.27
66752;SHT31;53663;42.676;23.238;2023-05-07T02:51:21;8.46;84.24
66752;SHT31;53663;42.676;23.238;2023-05-07T02:53:47;8.38;84.31
66752;SHT31;53663;42.676;23.238;2023-05-07T02:56:13;8.39;84.31
66752;SHT31;53663;42.676;23.238;2023-05-07T02:58:38;8.35;84.46
66752;SHT31;53663;42.676;23.238;2023-05-07T03:01:11;8.32;84.43
66752;SHT31;53663;42.676;23.238;2023-05-07T03:04:03;8.36;84.51
66752;SHT31;53663;42.676;23.238;2023-05-07T03:06:29;8.35;84.50
66752;SHT31;53663;42.676;23.238;2023-05-07T03:08:54;8.41;83.84
66752;SHT31;53663;42.676;23.238;2023-05-07T03:11:20;8.36;83.76
66752;SHT31;53663;42.676;23.238;2023-05-07T03:13:46;8.35;83.83
66752;SHT31;53663;42.676;23.238;2023-05-07T03:16:12;8.33;83.52
66752;SHT31;53663;42.676;23.238;2023-05-07T03:18:38;8.28;83.97
66752;SHT31;53663;42.676;23.238;2023-05-07T03:21:03;8.31;84.03
66752;SHT31;53663;42.676;23.238;2023-05-07T03:23:29;8.31;83.84
66752;SHT31;53663;42.676;23.238;2023-05-07T03:25:54;8.31;84.02
66752;SHT31;53663;42.676;23.238;2023-05-07T03:28:20;8.29;83.70
66752;SHT31;53663;42.676;23.238;2023-05-07T03:30:51;8.26;83.78
66752;SHT31;53663;42.676;23.238;2023-05-07T03:33:16;8.25;83.83
66752;SHT31;53663;42.676;23.238;2023-05-07T03:35:42;8.28;83.91
66752;SHT31;53663;42.676;23.238;2023-05-07T03:38:07;8.32;83.80
66752;SHT31;53663;42.676;23.238;2023-05-07T03:40:35;8.39;83.77
66752;SHT31;53663;42.676;23.238;2023-05-07T03:43:02;8.39;83.89
66752;SHT31;53663;42.676;23.238;2023-05-07T03:45:30;8.41;83.96
66752;SHT31;53663;42.676;23.238;2023-05-07T03:48:05;8.52;83.98
66752;SHT31;53663;42.676;23.238;2023-05-07T03:50:31;8.52;84.22
66752;SHT31;53663;42.676;23.238;2023-05-07T03:52:56;8.49;84.24
66752;SHT31;53663;42.676;23.238;2023-05-07T03:55:23;8.57;84.60
66752;SHT31;53663;42.676;23.238;2023-05-07T03:57:53;8.72;84.36
66752;SHT31;53663;42.676;23.238;2023-05-07T04:00:19;8.79;84.13
66752;SHT31;53663;42.676;23.238;2023-05-07T04:02:48;8.93;83.66
66752;SHT31;53663;42.676;23.238;2023-05-07T04:05:16;9.07;83.55
66752;SHT31;53663;42.676;23.238;2023-05-07T04:07:44;9.18;83.39
66752;SHT31;53663;42.676;23.238;2023-05-07T04:10:12;9.22;83.43
66752;SHT31;53663;42.676;23.238;2023-05-07T04:12:40;9.30;83.26
66752;SHT31;53663;42.676;23.238;2023-05-07T04:15:07;9.36;83.13
66752;SHT31;53663;42.676;23.238;2023-05-07T04:17:33;9.52;82.92
66752;SHT31;53663;42.676;23.238;2023-05-07T04:20:00;9.68;82.58
66752;SHT31;53663;42.676;23.238;2023-05-07T04:22:26;9.91;82.29
66752;SHT31;53663;42.676;23.238;2023-05-07T04:24:52;10.13;81.64
66752;SHT31;53663;42.676;23.238;2023-05-07T04:27:18;10.59;79.98
66752;SHT31;53663;42.676;23.238;2023-05-07T04:29:44;11.03;77.89
66752;SHT31;53663;42.676;23.238;2023-05-07T04:32:13;11.31;77.27
66752;SHT31;53663;42.676;23.238;2023-05-07T04:34:39;11.92;74.92
66752;SHT31;53663;42.676;23.238;2023-05-07T04:37:06;12.28;74.29
66752;SHT31;53663;42.676;23.238;2023-05-07T04:39:32;13.18;71.61
66752;SHT31;53663;42.676;23.238;2023-05-07T04:41:57;14.20;67.70
66752;SHT31;53663;42.676;23.238;2023-05-07T04:44:23;15.23;64.02
66752;SHT31;53663;42.676;23.238;2023-05-07T04:46:50;16.12;61.52
66752;SHT31;53663;42.676;23.238;2023-05-07T04:49:15;16.95;58.24
66752;SHT31;53663;42.676;23.238;2023-05-07T04:51:41;17.69;56.50
66752;SHT31;53663;42.676;23.238;2023-05-07T04:54:09;18.26;52.85
66752;SHT31;53663;42.676;23.238;2023-05-07T04:56:35;18.71;51.17
66752;SHT31;53663;42.676;23.238;2023-05-07T04:59:01;19.34;50.79
66752;SHT31;53663;42.676;23.238;2023-05-07T05:01:27;19.97;49.13
66752;SHT31;53663;42.676;23.238;2023-05-07T05:03:53;20.18;47.73
66752;SHT31;53663;42.676;23.238;2023-05-07T05:06:19;20.72;45.93
66752;SHT31;53663;42.676;23.238;2023-05-07T05:08:45;20.76;45.82
66752;SHT31;53663;42.676;23.238;2023-05-07T05:11:11;20.56;46.23
66752;SHT31;53663;42.676;23.238;2023-05-07T05:13:37;21.06;46.26
66752;SHT31;53663;42.676;23.238;2023-05-07T05:16:09;21.61;45.19
66752;SHT31;53663;42.676;23.238;2023-05-07T05:18:35;21.98;43.53
66752;SHT31;53663;42.676;23.238;2023-05-07T05:21:01;22.36;42.88
66752;SHT31;53663;42.676;23.238;2023-05-07T05:23:27;22.55;42.17
66752;SHT31;53663;42.676;23.238;2023-05-07T05:25:56;23.07;41.05
66752;SHT31;53663;42.676;23.238;2023-05-07T05:28:28;23.18;40.48
66752;SHT31;53663;42.676;23.238;2023-05-07T05:30:53;23.66;40.67
66752;SHT31;53663;42.676;23.238;2023-05-07T05:33:20;23.72;41.08
66752;SHT31;53663;42.676;23.238;2023-05-07T05:35:45;24.09;39.43
66752;SHT31;53663;42.676;23.238;2023-05-07T05:38:11;24.13;39.70
66752;SHT31;53663;42.676;23.238;2023-05-07T05:40:38;24.48;38.87
66752;SHT31;53663;42.676;23.238;2023-05-07T05:43:04;24.17;39.30
66752;SHT31;53663;42.676;23.238;2023-05-07T05:45:30;24.01;38.42
66752;SHT31;53663;42.676;23.238;2023-05-07T05:47:56;24.17;37.79
66752;SHT31;53663;42.676;23.238;2023-05-07T05:50:22;24.57;38.27
66752;SHT31;53663;42.676;23.238;2023-05-07T05:52:48;25.20;37.31
66752;SHT31;53663;42.676;23.238;2023-05-07T05:55:15;25.65;36.43
66752;SHT31;53663;42.676;23.238;2023-05-07T05:57:41;26.12;35.70
66752;SHT31;53663;42.676;23.238;2023-05-07T06:00:08;26.08;35.92
66752;SHT31;53663;42.676;23.238;2023-05-07T06:02:44;25.70;36.19
66752;SHT31;53663;42.676;23.238;2023-05-07T06:05:10;26.05;35.92
66752;SHT31;53663;42.676;23.238;2023-05-07T06:07:36;26.44;35.66
66752;SHT31;53663;42.676;23.238;2023-05-07T06:10:01;26.86;34.49
66752;SHT31;53663;42.676;23.238;2023-05-07T06:12:28;25.71;36.30
66752;SHT31;53663;42.676;23.238;2023-05-07T06:14:54;25.17;38.02
66752;SHT31;53663;42.676;23.238;2023-05-07T06:17:20;25.10;37.73
66752;SHT31;53663;42.676;23.238;2023-05-07T06:19:46;25.38;37.23
66752;SHT31;53663;42.676;23.238;2023-05-07T06:22:13;25.33;38.15
66752;SHT31;53663;42.676;23.238;2023-05-07T06:24:38;24.48;38.67
66752;SHT31;53663;42.676;23.238;2023-05-07T06:27:05;24.57;38.55
66752;SHT31;53663;42.676;23.238;2023-05-07T06:29:31;23.25;40.78
66752;SHT31;53663;42.676;23.238;2023-05-07T06:32:08;22.50;43.37
66752;SHT31;53663;42.676;23.238;2023-05-07T06:34:35;22.55;43.07
66752;SHT31;53663;42.676;23.238;2023-05-07T06:37:00;22.83;42.68
66752;SHT31;53663;42.676;23.238;2023-05-07T06:39:37;22.83;41.61
66752;SHT31;53663;42.676;23.238;2023-05-07T06:42:03;22.26;42.88
66752;SHT31;53663;42.676;23.238;2023-05-07T06:44:31;21.70;44.17
66752;SHT31;53663;42.676;23.238;2023-05-07T06:47:10;21.77;44.11
66752;SHT31;53663;42.676;23.238;2023-05-07T06:49:38;21.70;45.64
66752;SHT31;53663;42.676;23.238;2023-05-07T06:52:03;21.46;45.98
66752;SHT31;53663;42.676;23.238;2023-05-07T06:54:29;21.92;44.22
66752;SHT31;53663;42.676;23.238;2023-05-07T06:56:55;21.80;45.17
66752;SHT31;53663;42.676;23.238;2023-05-07T06:59:23;21.78;45.77
66752;SHT31;53663;42.676;23.238;2023-05-07T07:01:50;21.97;46.41
66752;SHT31;53663;42.676;23.238;2023-05-07T07:04:15;22.19;45.39
66752;SHT31;53663;42.676;23.238;2023-05-07T07:06:43;22.35;44.18
66752;SHT31;53663;42.676;23.238;2023-05-07T07:09:11;22.15;43.85
66752;SHT31;53663;42.676;23.238;2023-05-07T07:11:37;22.29;44.70
66752;SHT31;53663;42.676;23.238;2023-05-07T07:14:03;21.44;46.13
66752;SHT31;53663;42.676;23.238;2023-05-07T07:16:33;21.70;45.27
66752;SHT31;53663;42.676;23.238;2023-05-07T07:18:58;21.85;43.74
66752;SHT31;53663;42.676;23.238;2023-05-07T07:21:24;22.04;44.11
66752;SHT31;53663;42.676;23.238;2023-05-07T07:23:50;22.10;45.15
66752;SHT31;53663;42.676;23.238;2023-05-07T07:26:17;22.36;44.49
66752;SHT31;53663;42.676;23.238;2023-05-07T07:28:46;21.80;44.07
66752;SHT31;53663;42.676;23.238;2023-05-07T07:31:15;21.31;46.67
66752;SHT31;53663;42.676;23.238;2023-05-07T07:33:40;21.60;43.49
66752;SHT31;53663;42.676;23.238;2023-05-07T07:36:07;21.85;42.91
66752;SHT31;53663;42.676;23.238;2023-05-07T07:38:33;21.60;44.39
66752;SHT31;53663;42.676;23.238;2023-05-07T07:41:00;21.54;45.41
66752;SHT31;53663;42.676;23.238;2023-05-07T07:43:25;21.44;46.01
66752;SHT31;53663;42.676;23.238;2023-05-07T07:45:51;21.81;44.19
66752;SHT31;53663;42.676;23.238;2023-05-07T07:48:18;22.40;43.79
66752;SHT31;53663;42.676;23.238;2023-05-07T07:50:43;22.95;43.66
66752;SHT31;53663;42.676;23.238;2023-05-07T07:53:09;23.32;42.52
66752;SHT31;53663;42.676;23.238;2023-05-07T07:55:38;23.76;43.23
66752;SHT31;53663;42.676;23.238;2023-05-07T07:58:05;23.92;41.94
66752;SHT31;53663;42.676;23.238;2023-05-07T08:00:30;23.32;41.42
66752;SHT31;53663;42.676;23.238;2023-05-07T08:02:56;23.73;42.19
66752;SHT31;53663;42.676;23.238;2023-05-07T08:05:26;23.69;40.55
66752;SHT31;53663;42.676;23.238;2023-05-07T08:07:52;23.70;38.92
66752;SHT31;53663;42.676;23.238;2023-05-07T08:10:22;24.09;39.24
66752;SHT31;53663;42.676;23.238;2023-05-07T08:12:52;24.18;39.33
66752;SHT31;53663;42.676;23.238;2023-05-07T08:15:18;24.51;38.29
66752;SHT31;53663;42.676;23.238;2023-05-07T08:17:44;24.65;38.18
66752;SHT31;53663;42.676;23.238;2023-05-07T08:20:10;24.16;37.67
66752;SHT31;53663;42.676;23.238;2023-05-07T08:22:36;23.38;39.43
66752;SHT31;53663;42.676;23.238;2023-05-07T08:25:02;23.63;40.67
66752;SHT31;53663;42.676;23.238;2023-05-07T08:27:29;23.46;40.41
66752;SHT31;53663;42.676;23.238;2023-05-07T08:29:54;23.90;40.18
66752;SHT31;53663;42.676;23.238;2023-05-07T08:32:21;24.31;40.38
66752;SHT31;53663;42.676;23.238;2023-05-07T08:34:47;24.44;39.68
66752;SHT31;53663;42.676;23.238;2023-05-07T08:37:13;24.32;39.98
66752;SHT31;53663;42.676;23.238;2023-05-07T08:39:39;23.67;39.64
66752;SHT31;53663;42.676;23.238;2023-05-07T08:42:12;24.42;41.97
66752;SHT31;53663;42.676;23.238;2023-05-07T08:44:39;24.54;38.32
66752;SHT31;53663;42.676;23.238;2023-05-07T08:47:06;24.65;38.08
66752;SHT31;53663;42.676;23.238;2023-05-07T08:49:33;24.90;37.74
66752;SHT31;53663;42.676;23.238;2023-05-07T08:52:00;24.59;36.92
66752;SHT31;53663;42.676;23.238;2023-05-07T08:54:27;24.88;37.81
66752;SHT31;53663;42.676;23.238;2023-05-07T08:56:55;25.27;36.25
66752;SHT31;53663;42.676;23.238;2023-05-07T08:59:20;25.17;37.60
66752;SHT31;53663;42.676;23.238;2023-05-07T09:01:46;25.40;37.67
66752;SHT31;53663;42.676;23.238;2023-05-07T09:04:13;25.54;37.36
66752;SHT31;53663;42.676;23.238;2023-05-07T09:06:39;25.67;37.29
66752;SHT31;53663;42.676;23.238;2023-05-07T09:09:08;26.01;35.34
66752;SHT31;53663;42.676;23.238;2023-05-07T09:11:34;25.86;34.37
66752;SHT31;53663;42.676;23.238;2023-05-07T09:14:01;25.36;36.25
66752;SHT31;53663;42.676;23.238;2023-05-07T09:16:32;25.65;34.73
66752;SHT31;53663;42.676;23.238;2023-05-07T09:18:59;25.48;34.59
66752;SHT31;53663;42.676;23.238;2023-05-07T09:21:28;25.71;34.96
66752;SHT31;53663;42.676;23.238;2023-05-07T09:23:56;25.95;35.84
66752;SHT31;53663;42.676;23.238;2023-05-07T09:26:28;25.74;36.69
66752;SHT31;53663;42.676;23.238;2023-05-07T09:28:54;25.86;35.64
66752;SHT31;53663;42.676;23.238;2023-05-07T09:31:20;26.06;35.18
66752;SHT31;53663;42.676;23.238;2023-05-07T09:33:48;26.19;33.95
66752;SHT31;53663;42.676;23.238;2023-05-07T09:36:15;26.13;35.66
66752;SHT31;53663;42.676;23.238;2023-05-07T09:38:41;26.15;34.10
66752;SHT31;53663;42.676;23.238;2023-05-07T09:41:09;26.22;32.48
66752;SHT31;53663;42.676;23.238;2023-05-07T09:43:42;26.16;30.91
66752;SHT31;53663;42.676;23.238;2023-05-07T09:46:14;25.60;33.39
66752;SHT31;53663;42.676;23.238;2023-05-07T09:48:44;25.82;33.23
66752;SHT31;53663;42.676;23.238;2023-05-07T09:53:45;25.38;34.14
66752;SHT31;53663;42.676;23.238;2023-05-07T09:56:14;25.63;35.33
66752;SHT31;53663;42.676;23.238;2023-05-07T09:58:41;25.48;34.58
66752;SHT31;53663;42.676;23.238;2023-05-07T10:01:07;25.63;35.32
66752;SHT31;53663;42.676;23.238;2023-05-07T10:03:35;25.73;34.21
66752;SHT31;53663;42.676;23.238;2023-05-07T10:06:04;25.55;33.84
66752;SHT31;53663;42.676;23.238;2023-05-07T10:08:31;25.68;34.16
66752;SHT31;53663;42.676;23.238;2023-05-07T10:10:59;25.99;30.77
66752;SHT31;53663;42.676;23.238;2023-05-07T10:13:27;25.37;32.78
66752;SHT31;53663;42.676;23.238;2023-05-07T10:15:56;25.31;33.01
66752;SHT31;53663;42.676;23.238;2023-05-07T10:18:26;26.02;31.08
66752;SHT31;53663;42.676;23.238;2023-05-07T10:21:07;26.22;32.45
66752;SHT31;53663;42.676;23.238;2023-05-07T10:23:34;25.98;31.77
66752;SHT31;53663;42.676;23.238;2023-05-07T10:26:02;26.35;30.80
66752;SHT31;53663;42.676;23.238;2023-05-07T10:28:33;26.43;29.94
66752;SHT31;53663;42.676;23.238;2023-05-07T10:34:32;26.28;30.92
66752;SHT31;53663;42.676;23.238;2023-05-07T10:37:00;25.80;29.82
66752;SHT31;53663;42.676;23.238;2023-05-07T10:39:27;25.78;29.30
66752;SHT31;53663;42.676;23.238;2023-05-07T10:41:53;25.91;29.36
66752;SHT31;53663;42.676;23.238;2023-05-07T10:44:26;25.17;32.31
66752;SHT31;53663;42.676;23.238;2023-05-07T10:47:12;24.51;31.50
66752;SHT31;53663;42.676;23.238;2023-05-07T10:52:16;24.24;32.44
66752;SHT31;53663;42.676;23.238;2023-05-07T11:38:35;25.64;31.32
66752;SHT31;53663;42.676;23.238;2023-05-07T11:41:00;25.96;31.09
66752;SHT31;53663;42.676;23.238;2023-05-07T11:43:27;26.21;30.44
66752;SHT31;53663;42.676;23.238;2023-05-07T11:45:53;26.32;31.85
66752;SHT31;53663;42.676;23.238;2023-05-07T11:48:18;26.52;30.90
66752;SHT31;53663;42.676;23.238;2023-05-07T11:51:12;26.53;29.97
66752;SHT31;53663;42.676;23.238;2023-05-07T11:53:40;26.59;29.28
66752;SHT31;53663;42.676;23.238;2023-05-07T11:56:10;26.46;29.57
66752;SHT31;53663;42.676;23.238;2023-05-07T11:58:36;26.36;29.30
66752;SHT31;53663;42.676;23.238;2023-05-07T12:01:02;26.31;31.09
66752;SHT31;53663;42.676;23.238;2023-05-07T12:03:28;26.31;30.51
66752;SHT31;53663;42.676;23.238;2023-05-07T12:05:53;26.49;30.59
66752;SHT31;53663;42.676;23.238;2023-05-07T12:08:20;26.61;29.52
66752;SHT31;53663;42.676;23.238;2023-05-07T12:35:13;26.22;29.93
66752;SHT31;53663;42.676;23.238;2023-05-07T12:37:38;26.28;29.34
66752;SHT31;53663;42.676;23.238;2023-05-07T12:40:10;26.28;31.09
66752;SHT31;53663;42.676;23.238;2023-05-07T12:42:37;26.09;31.73
66752;SHT31;53663;42.676;23.238;2023-05-07T12:45:14;26.16;30.38
66752;SHT31;53663;42.676;23.238;2023-05-07T12:47:47;25.98;29.31
66752;SHT31;53663;42.676;23.238;2023-05-07T12:50:14;25.13;30.33
66752;SHT31;53663;42.676;23.238;2023-05-07T12:52:40;25.55;31.61
66752;SHT31;53663;42.676;23.238;2023-05-07T12:55:09;25.74;30.83
66752;SHT31;53663;42.676;23.238;2023-05-07T12:57:42;25.71;30.31
66752;SHT31;53663;42.676;23.238;2023-05-07T13:00:08;25.80;29.51
66752;SHT31;53663;42.676;23.238;2023-05-07T13:02:38;25.44;32.37
66752;SHT31;53663;42.676;23.238;2023-05-07T13:05:04;25.27;30.66
66752;SHT31;53663;42.676;23.238;2023-05-07T13:07:29;25.00;30.18
66752;SHT31;53663;42.676;23.238;2023-05-07T13:09:55;24.93;29.81
66752;SHT31;53663;42.676;23.238;2023-05-07T13:12:20;24.67;30.52
66752;SHT31;53663;42.676;23.238;2023-05-07T13:14:46;24.59;30.56
66752;SHT31;53663;42.676;23.238;2023-05-07T13:17:11;24.37;31.42
66752;SHT31;53663;42.676;23.238;2023-05-07T13:19:37;24.17;31.26
66752;SHT31;53663;42.676;23.238;2023-05-07T13:22:03;24.16;31.49
66752;SHT31;53663;42.676;23.238;2023-05-07T13:24:29;23.77;31.79
66752;SHT31;53663;42.676;23.238;2023-05-07T13:26:54;23.96;34.09
66752;SHT31;53663;42.676;23.238;2023-05-07T13:29:20;24.20;31.42
66752;SHT31;53663;42.676;23.238;2023-05-07T13:31:50;24.13;32.06
66752;SHT31;53663;42.676;23.238;2023-05-07T13:34:16;24.28;31.71
66752;SHT31;53663;42.676;23.238;2023-05-07T13:36:41;24.48;33.74
66752;SHT31;53663;42.676;23.238;2023-05-07T13:39:07;24.67;32.68
66752;SHT31;53663;42.676;23.238;2023-05-07T13:41:34;24.96;33.43
66752;SHT31;53663;42.676;23.238;2023-05-07T13:43:59;24.89;30.79
66752;SHT31;53663;42.676;23.238;2023-05-07T13:46:25;24.78;30.82
66752;SHT31;53663;42.676;23.238;2023-05-07T13:48:50;24.61;31.48
66752;SHT31;53663;42.676;23.238;2023-05-07T13:51:16;24.57;31.50
66752;SHT31;53663;42.676;23.238;2023-05-07T13:53:42;24.57;31.31
66752;SHT31;53663;42.676;23.238;2023-05-07T13:56:07;24.38;32.84
66752;SHT31;53663;42.676;23.238;2023-05-07T13:58:33;24.25;33.26
66752;SHT31;53663;42.676;23.238;2023-05-07T14:00:58;24.32;32.55
66752;SHT31;53663;42.676;23.238;2023-05-07T14:03:24;24.35;33.65
66752;SHT31;53663;42.676;23.238;2023-05-07T14:05:49;24.22;33.18
66752;SHT31;53663;42.676;23.238;2023-05-07T14:08:15;24.40;32.77
66752;SHT31;53663;42.676;23.238;2023-05-07T14:10:42;24.45;33.47
66752;SHT31;53663;42.676;23.238;2023-05-07T14:13:08;24.55;32.57
66752;SHT31;53663;42.676;23.238;2023-05-07T14:15:33;24.58;31.81
66752;SHT31;53663;42.676;23.238;2023-05-07T14:18:00;24.76;32.22
66752;SHT31;53663;42.676;23.238;2023-05-07T14:20:25;24.59;31.39
66752;SHT31;53663;42.676;23.238;2023-05-07T14:22:51;24.32;32.20
66752;SHT31;53663;42.676;23.238;2023-05-07T14:25:16;24.37;32.85
66752;SHT31;53663;42.676;23.238;2023-05-07T14:27:48;24.21;33.43
66752;SHT31;53663;42.676;23.238;2023-05-07T14:30:13;24.32;32.91
66752;SHT31;53663;42.676;23.238;2023-05-07T14:32:39;24.25;33.24
66752;SHT31;53663;42.676;23.238;2023-05-07T14:35:04;24.32;33.86
66752;SHT31;53663;42.676;23.238;2023-05-07T14:37:30;24.55;34.36
66752;SHT31;53663;42.676;23.238;2023-05-07T14:39:55;24.58;33.04
66752;SHT31;53663;42.676;23.238;2023-05-07T14:42:21;24.64;33.65
66752;SHT31;53663;42.676;23.238;2023-05-07T14:44:47;24.34;31.48
66752;SHT31;53663;42.676;23.238;2023-05-07T14:47:14;24.21;33.49
66752;SHT31;53663;42.676;23.238;2023-05-07T14:49:40;24.28;32.44
66752;SHT31;53663;42.676;23.238;2023-05-07T14:52:06;24.25;33.67
66752;SHT31;53663;42.676;23.238;2023-05-07T14:54:36;24.24;31.92
66752;SHT31;53663;42.676;23.238;2023-05-07T14:57:02;24.13;32.61
66752;SHT31;53663;42.676;23.238;2023-05-07T14:59:28;24.03;32.98
66752;SHT31;53663;42.676;23.238;2023-05-07T15:01:54;23.90;33.25
66752;SHT31;53663;42.676;23.238;2023-05-07T15:04:19;23.94;33.82
66752;SHT31;53663;42.676;23.238;2023-05-07T15:06:45;23.96;34.15
66752;SHT31;53663;42.676;23.238;2023-05-07T15:09:11;24.07;34.67
66752;SHT31;53663;42.676;23.238;2023-05-07T15:11:37;24.10;34.56
66752;SHT31;53663;42.676;23.238;2023-05-07T15:14:03;23.90;34.22
66752;SHT31;53663;42.676;23.238;2023-05-07T15:16:28;23.87;34.62
66752;SHT31;53663;42.676;23.238;2023-05-07T15:18:54;23.76;33.50
66752;SHT31;53663;42.676;23.238;2023-05-07T15:21:19;23.74;33.48
66752;SHT31;53663;42.676;23.238;2023-05-07T15:23:45;23.73;33.92
66752;SHT31;53663;42.676;23.238;2023-05-07T15:26:11;23.77;34.97
66752;SHT31;53663;42.676;23.238;2023-05-07T15:28:36;23.65;33.76
66752;SHT31;53663;42.676;23.238;2023-05-07T15:31:03;23.63;34.31
66752;SHT31;53663;42.676;23.238;2023-05-07T15:33:28;23.59;35.95
66752;SHT31;53663;42.676;23.238;2023-05-07T15:35:54;23.53;35.40
66752;SHT31;53663;42.676;23.238;2023-05-07T15:38:24;23.69;35.19
66752;SHT31;53663;42.676;23.238;2023-05-07T15:40:49;23.65;34.63
66752;SHT31;53663;42.676;23.238;2023-05-07T15:43:15;23.66;34.52
66752;SHT31;53663;42.676;23.238;2023-05-07T15:45:42;23.51;35.05
66752;SHT31;53663;42.676;23.238;2023-05-07T15:48:11;23.41;35.34
66752;SHT31;53663;42.676;23.238;2023-05-07T15:50:37;23.48;35.22
66752;SHT31;53663;42.676;23.238;2023-05-07T15:53:03;23.31;35.19
66752;SHT31;53663;42.676;23.238;2023-05-07T15:55:30;23.24;35.29
66752;SHT31;53663;42.676;23.238;2023-05-07T15:57:56;23.28;35.56
66752;SHT31;53663;42.676;23.238;2023-05-07T16:00:24;23.21;35.84
66752;SHT31;53663;42.676;23.238;2023-05-07T16:02:51;23.19;35.91
66752;SHT31;53663;42.676;23.238;2023-05-07T16:05:16;23.19;36.11
66752;SHT31;53663;42.676;23.238;2023-05-07T16:07:42;23.11;36.30
66752;SHT31;53663;42.676;23.238;2023-05-07T16:10:09;23.03;37.37
66752;SHT31;53663;42.676;23.238;2023-05-07T16:12:35;22.91;36.65
66752;SHT31;53663;42.676;23.238;2023-05-07T16:15:01;22.87;37.23
66752;SHT31;53663;42.676;23.238;2023-05-07T16:17:26;22.93;35.47
66752;SHT31;53663;42.676;23.238;2023-05-07T16:19:52;22.90;35.58
66752;SHT31;53663;42.676;23.238;2023-05-07T16:22:17;22.70;37.10
66752;SHT31;53663;42.676;23.238;2023-05-07T16:24:43;22.56;37.90
66752;SHT31;53663;42.676;23.238;2023-05-07T16:27:09;22.49;38.62
66752;SHT31;53663;42.676;23.238;2023-05-07T16:29:34;22.26;39.53
66752;SHT31;53663;42.676;23.238;2023-05-07T16:32:00;22.15;39.25
66752;SHT31;53663;42.676;23.238;2023-05-07T16:34:25;22.06;39.23